Time;durP1;ratioP1;P1;durP2;ratioP2;P2;SDS_P1;SDS_P2;PMS_P1;PMS_P2;Temp;Humidity;BMP_temperature;BMP_pressure;BME280_temperature;BME280_humidity;BME280_pressure;Samples;Min_cycle;Max_cycle;Signal;HPM_P1;HPM_P2
2023/04/16 00:00:29;;;;;;;8.03;6.07;;;;;;;;;;5054447;28;20396;-75
2023/04/16 00:02:54;;;;;;;8.27;6.07;;;;;;;;;;5055772;28;20701;-75
2023/04/16 00:05:20;;;;;;;8.32;6.28;;;;;;;;;;5055324;28;20025;-76
2023/04/16 00:07:45;;;;;;;9.02;6.38;;;;;;;;;;5055070;28;20021;-75
2023/04/16 00:10:10;;;;;;;7.78;5.70;;;;;;;;;;5055792;28;20535;-75
2023/04/16 00:12:35;;;;;;;7.77;6.20;;;;;;;;;;5055516;28;20085;-75
2023/04/16 00:15:01;;;;;;;9.37;6.37;;;;;;;;;;5055675;28;20258;-75
2023/04/16 00:17:26;;;;;;;8.63;5.83;;;;;;;;;;5055835;28;20261;-76
2023/04/16 00:19:51;;;;;;;9.07;6.30;;;;;;;;;;5054188;28;20266;-76
2023/04/16 00:22:16;;;;;;;8.02;5.80;;;;;;;;;;5055332;28;20282;-75
2023/04/16 00:24:41;;;;;;;10.38;6.00;;;;;;;;;;5055792;28;20072;-75
2023/04/16 00:27:07;;;;;;;8.05;5.88;;;;;;;;;;5055917;28;20025;-76
2023/04/16 00:29:33;;;;;;;8.13;5.63;;;;;;;;;;5055624;28;20163;-76
2023/04/16 00:31:59;;;;;;;9.23;6.18;;;;;;;;;;5054058;28;20742;-76
2023/04/16 00:34:24;;;;;;;8.60;6.38;;;;;;;;;;5055188;28;20036;-76
2023/04/16 00:36:49;;;;;;;8.20;6.20;;;;;;;;;;5055260;28;20021;-76
2023/04/16 00:39:14;;;;;;;8.53;5.87;;;;;;;;;;5053907;28;20064;-76
2023/04/16 00:41:42;;;;;;;9.20;6.07;;;;;;;;;;5055449;28;20317;-76
2023/04/16 00:44:07;;;;;;;8.70;5.72;;;;;;;;;;5055035;28;20072;-75
2023/04/16 00:46:33;;;;;;;8.33;6.20;;;;;;;;;;5055052;28;20502;-76
2023/04/16 00:48:59;;;;;;;8.77;6.28;;;;;;;;;;5055012;28;20309;-76
2023/04/16 00:51:25;;;;;;;9.15;6.15;;;;;;;;;;5054944;28;20104;-75
2023/04/16 00:53:51;;;;;;;8.25;5.90;;;;;;;;;;5053583;28;20028;-76
2023/04/16 00:56:16;;;;;;;7.85;5.57;;;;;;;;;;5055728;28;20379;-76
2023/04/16 00:58:42;;;;;;;7.88;5.78;;;;;;;;;;5053588;28;20021;-75
2023/04/16 01:01:07;;;;;;;7.32;5.40;;;;;;;;;;5054769;28;20499;-76
2023/04/16 01:03:43;;;;;;;10.05;5.82;;;;;;;;;;5054655;28;20059;-75
2023/04/16 01:06:08;;;;;;;10.70;5.82;;;;;;;;;;5054678;28;20029;-75
2023/04/16 01:08:34;;;;;;;10.27;5.47;;;;;;;;;;5054968;28;20027;-76
2023/04/16 01:10:59;;;;;;;9.13;6.03;;;;;;;;;;5054457;28;20032;-76
2023/04/16 01:13:24;;;;;;;8.70;6.13;;;;;;;;;;5054765;28;20419;-76
2023/04/16 01:15:50;;;;;;;7.53;5.68;;;;;;;;;;5054511;28;20040;-75
2023/04/16 01:18:17;;;;;;;8.32;5.72;;;;;;;;;;5053140;28;20029;-75
2023/04/16 01:20:42;;;;;;;8.30;6.05;;;;;;;;;;5054668;28;20028;-75
2023/04/16 01:23:08;;;;;;;8.00;5.97;;;;;;;;;;5054292;28;20025;-76
2023/04/16 01:25:33;;;;;;;7.00;5.20;;;;;;;;;;5054360;28;20037;-75
2023/04/16 01:27:58;;;;;;;8.00;5.78;;;;;;;;;;5054318;28;20028;-75
2023/04/16 01:30:24;;;;;;;8.57;5.63;;;;;;;;;;5054247;28;20020;-76
2023/04/16 01:32:49;;;;;;;8.50;5.72;;;;;;;;;;5052857;28;20542;-76
2023/04/16 01:35:17;;;;;;;7.25;5.50;;;;;;;;;;5054281;28;20086;-75
2023/04/16 01:37:43;;;;;;;8.98;5.70;;;;;;;;;;5053411;28;20478;-75
2023/04/16 01:40:08;;;;;;;11.70;5.70;;;;;;;;;;5053931;28;20388;-75
2023/04/16 01:42:34;;;;;;;8.25;5.85;;;;;;;;;;5053899;28;20029;-75
2023/04/16 01:44:59;;;;;;;9.77;5.80;;;;;;;;;;5054509;28;20052;-76
2023/04/16 01:47:25;;;;;;;8.18;5.68;;;;;;;;;;5052651;28;20032;-75
2023/04/16 01:49:50;;;;;;;9.52;5.80;;;;;;;;;;5053680;28;20029;-76
2023/04/16 01:52:15;;;;;;;8.15;6.00;;;;;;;;;;5052442;28;20043;-75
2023/04/16 01:54:41;;;;;;;10.05;6.03;;;;;;;;;;5054026;28;20063;-75
2023/04/16 01:57:06;;;;;;;8.00;5.55;;;;;;;;;;5053835;28;20044;-75
2023/04/16 01:59:31;;;;;;;8.85;6.47;;;;;;;;;;5054508;28;20021;-75
2023/04/16 02:02:26;;;;;;;8.25;5.78;;;;;;;;;;5053610;28;20025;-76
2023/04/16 02:04:52;;;;;;;10.02;6.07;;;;;;;;;;5049921;28;20408;-76
2023/04/16 02:07:18;;;;;;;8.52;5.78;;;;;;;;;;5052602;28;20024;-75
2023/04/16 02:09:43;;;;;;;8.10;5.85;;;;;;;;;;5053479;28;20074;-75
2023/04/16 02:12:10;;;;;;;9.02;5.57;;;;;;;;;;5053564;28;20025;-75
2023/04/16 02:14:36;;;;;;;7.30;5.80;;;;;;;;;;5053714;28;20040;-76
2023/04/16 02:17:02;;;;;;;12.05;5.80;;;;;;;;;;5052083;28;20373;-75
2023/04/16 02:19:27;;;;;;;7.50;5.50;;;;;;;;;;5052084;28;20025;-76
2023/04/16 02:21:53;;;;;;;8.40;5.80;;;;;;;;;;5051901;28;20082;-76
2023/04/16 02:24:19;;;;;;;7.38;5.40;;;;;;;;;;5053157;28;20058;-75
2023/04/16 02:26:45;;;;;;;7.55;5.40;;;;;;;;;;5053110;28;20024;-75
2023/04/16 02:29:10;;;;;;;9.25;5.30;;;;;;;;;;5053168;28;20480;-75
2023/04/16 02:31:36;;;;;;;9.13;5.97;;;;;;;;;;5051819;28;20028;-75
2023/04/16 02:34:02;;;;;;;8.95;5.90;;;;;;;;;;5051677;28;20254;-76
2023/04/16 02:36:27;;;;;;;6.30;5.20;;;;;;;;;;5053065;28;20024;-75
2023/04/16 02:38:52;;;;;;;8.35;5.88;;;;;;;;;;5053127;28;20031;-76
2023/04/16 02:41:17;;;;;;;6.77;5.13;;;;;;;;;;5053185;28;20361;-75
2023/04/16 02:43:43;;;;;;;11.37;5.30;;;;;;;;;;5052891;28;20671;-76
2023/04/16 02:46:08;;;;;;;11.82;5.18;;;;;;;;;;5052900;28;20660;-75
2023/04/16 02:48:33;;;;;;;8.35;5.68;;;;;;;;;;5052892;28;20025;-75
2023/04/16 02:50:59;;;;;;;7.73;5.37;;;;;;;;;;5052919;28;20025;-76
2023/04/16 02:53:24;;;;;;;8.57;4.97;;;;;;;;;;5052861;28;20266;-75
2023/04/16 02:55:53;;;;;;;7.78;5.55;;;;;;;;;;5052823;28;20387;-75
2023/04/16 02:58:24;;;;;;;6.95;5.13;;;;;;;;;;5052825;28;20021;-76
2023/04/16 03:00:50;;;;;;;10.13;5.47;;;;;;;;;;5052952;28;20036;-76
2023/04/16 03:03:15;;;;;;;8.23;5.60;;;;;;;;;;5053950;28;20020;-75
2023/04/16 03:05:41;;;;;;;8.52;5.30;;;;;;;;;;5056955;28;20108;-76
2023/04/16 03:08:06;;;;;;;7.78;5.10;;;;;;;;;;5056949;28;20028;-75
2023/04/16 03:10:32;;;;;;;13.98;5.30;;;;;;;;;;5055603;28;20017;-76
2023/04/16 03:12:57;;;;;;;6.82;5.03;;;;;;;;;;5055398;28;20028;-75
2023/04/16 03:15:23;;;;;;;6.82;4.75;;;;;;;;;;5056801;28;20074;-76
2023/04/16 03:17:48;;;;;;;8.85;5.00;;;;;;;;;;5055465;28;20024;-76
2023/04/16 03:20:15;;;;;;;5.88;4.43;;;;;;;;;;5056601;28;20087;-75
2023/04/16 03:22:41;;;;;;;7.95;5.13;;;;;;;;;;5056561;28;20029;-75
2023/04/16 03:25:07;;;;;;;7.25;4.78;;;;;;;;;;5056709;28;20362;-74
2023/04/16 03:27:32;;;;;;;6.13;4.55;;;;;;;;;;5057119;28;20029;-75
2023/04/16 03:29:58;;;;;;;5.97;4.68;;;;;;;;;;5056541;28;20395;-75
2023/04/16 03:32:23;;;;;;;7.05;4.97;;;;;;;;;;5055068;28;20021;-75
2023/04/16 03:34:48;;;;;;;6.88;5.10;;;;;;;;;;5056391;28;20061;-75
2023/04/16 03:37:14;;;;;;;7.30;5.13;;;;;;;;;;5056880;28;20396;-75
2023/04/16 03:39:39;;;;;;;7.22;4.93;;;;;;;;;;5056327;28;20764;-75
2023/04/16 03:42:04;;;;;;;7.82;5.10;;;;;;;;;;5056222;28;20075;-75
2023/04/16 03:44:29;;;;;;;8.07;4.95;;;;;;;;;;5054870;28;20029;-75
2023/04/16 03:46:55;;;;;;;7.43;5.00;;;;;;;;;;5054947;28;20033;-75
2023/04/16 03:49:20;;;;;;;7.60;5.30;;;;;;;;;;5056504;28;20269;-75
2023/04/16 03:51:45;;;;;;;6.43;5.03;;;;;;;;;;5056150;28;20021;-75
2023/04/16 03:54:11;;;;;;;6.32;4.82;;;;;;;;;;5055936;28;20025;-75
2023/04/16 03:56:36;;;;;;;5.97;4.80;;;;;;;;;;5056048;28;20029;-75
2023/04/16 03:59:01;;;;;;;6.57;4.90;;;;;;;;;;5056264;28;20123;-75
2023/04/16 04:01:26;;;;;;;7.13;5.07;;;;;;;;;;5054580;28;20270;-75
2023/04/16 04:03:52;;;;;;;7.03;5.10;;;;;;;;;;5054512;28;20033;-75
2023/04/16 04:06:17;;;;;;;6.20;4.20;;;;;;;;;;5055652;28;20254;-75
2023/04/16 04:08:42;;;;;;;6.43;4.87;;;;;;;;;;5055775;28;20292;-75
2023/04/16 04:11:07;;;;;;;7.10;4.53;;;;;;;;;;5055947;28;20266;-75
2023/04/16 04:13:32;;;;;;;9.27;4.53;;;;;;;;;;5055337;28;20323;-75
2023/04/16 04:15:58;;;;;;;7.23;4.83;;;;;;;;;;5055747;28;20262;-75
2023/04/16 04:18:23;;;;;;;7.73;4.90;;;;;;;;;;5055638;28;20265;-76
2023/04/16 04:20:48;;;;;;;8.97;4.93;;;;;;;;;;5054178;28;20312;-76
2023/04/16 04:23:13;;;;;;;6.72;4.68;;;;;;;;;;5055694;28;20262;-75
2023/04/16 04:25:40;;;;;;;10.20;6.72;;;;;;;;;;5055432;28;20029;-76
2023/04/16 04:28:05;;;;;;;15.02;8.20;;;;;;;;;;5055407;28;20033;-76
2023/04/16 04:30:30;;;;;;;14.50;7.93;;;;;;;;;;5056407;28;20103;-76
2023/04/16 04:32:55;;;;;;;8.80;5.10;;;;;;;;;;5056617;28;20317;-76
2023/04/16 04:35:21;;;;;;;6.15;4.88;;;;;;;;;;5056651;28;20269;-76
2023/04/16 04:37:46;;;;;;;5.93;4.63;;;;;;;;;;5057495;28;20025;-76
2023/04/16 04:40:11;;;;;;;8.85;4.68;;;;;;;;;;5056176;28;20021;-76
2023/04/16 04:42:37;;;;;;;6.90;4.47;;;;;;;;;;5057159;28;20027;-76
2023/04/16 04:45:03;;;;;;;7.25;4.60;;;;;;;;;;5056612;28;20052;-77
2023/04/16 04:47:28;;;;;;;6.35;4.43;;;;;;;;;;5057535;28;20028;-76
2023/04/16 04:49:53;;;;;;;7.23;4.33;;;;;;;;;;5055803;28;20061;-76
2023/04/16 04:52:19;;;;;;;6.23;4.47;;;;;;;;;;5057425;28;20269;-75
2023/04/16 04:54:44;;;;;;;6.70;4.65;;;;;;;;;;5056840;28;20257;-75
2023/04/16 04:57:09;;;;;;;5.68;4.38;;;;;;;;;;5056272;28;20061;-75
2023/04/16 04:59:35;;;;;;;6.80;4.25;;;;;;;;;;5057324;28;20399;-76
2023/04/16 05:02:02;;;;;;;6.57;4.47;;;;;;;;;;5056228;28;20094;-76
2023/04/16 05:04:27;;;;;;;7.38;4.65;;;;;;;;;;5056254;28;20037;-75
2023/04/16 05:06:52;;;;;;;5.03;4.28;;;;;;;;;;5054836;28;20036;-76
2023/04/16 05:09:17;;;;;;;8.93;4.68;;;;;;;;;;5054977;28;20028;-76
2023/04/16 05:11:43;;;;;;;6.47;4.57;;;;;;;;;;5055250;28;20033;-75
2023/04/16 05:14:08;;;;;;;7.17;4.83;;;;;;;;;;5054556;28;20621;-76
2023/04/16 05:16:35;;;;;;;7.53;4.65;;;;;;;;;;5054606;28;20609;-76
2023/04/16 05:19:00;;;;;;;6.00;4.65;;;;;;;;;;5054451;28;20064;-76
2023/04/16 05:21:25;;;;;;;6.23;4.33;;;;;;;;;;5054918;28;20060;-75
2023/04/16 05:23:51;;;;;;;6.27;4.37;;;;;;;;;;5054411;28;20300;-75
2023/04/16 05:26:16;;;;;;;5.43;4.30;;;;;;;;;;5053624;28;20289;-75
2023/04/16 05:28:41;;;;;;;5.60;4.30;;;;;;;;;;5054373;28;20025;-75
2023/04/16 05:31:06;;;;;;;5.50;4.17;;;;;;;;;;5054784;28;20025;-75
2023/04/16 05:33:32;;;;;;;5.18;3.75;;;;;;;;;;5054148;28;20315;-75
2023/04/16 05:35:57;;;;;;;6.35;4.43;;;;;;;;;;5054121;28;20021;-75
2023/04/16 05:38:22;;;;;;;6.03;4.50;;;;;;;;;;5054159;28;20369;-75
2023/04/16 05:40:47;;;;;;;5.67;4.27;;;;;;;;;;5052977;28;20892;-76
2023/04/16 05:43:12;;;;;;;8.65;4.22;;;;;;;;;;5052671;28;20834;-76
2023/04/16 05:45:39;;;;;;;7.72;5.35;;;;;;;;;;5053983;28;20024;-74
2023/04/16 05:48:07;;;;;;;7.28;4.80;;;;;;;;;;5053958;28;20488;-75
2023/04/16 05:50:32;;;;;;;6.30;4.00;;;;;;;;;;5054203;28;20028;-74
2023/04/16 05:52:57;;;;;;;7.07;4.63;;;;;;;;;;5053754;28;20105;-74
2023/04/16 05:55:22;;;;;;;6.43;4.40;;;;;;;;;;5054043;28;20032;-75
2023/04/16 05:57:48;;;;;;;6.43;4.87;;;;;;;;;;5053620;28;20029;-76
2023/04/16 06:00:13;;;;;;;7.67;4.90;;;;;;;;;;5053609;28;20257;-77
2023/04/16 06:02:38;;;;;;;7.95;4.97;;;;;;;;;;5053678;28;20368;-75
2023/04/16 06:05:04;;;;;;;8.43;4.72;;;;;;;;;;5052600;28;20041;-74
2023/04/16 06:07:29;;;;;;;7.00;4.57;;;;;;;;;;5052304;28;20025;-76
2023/04/16 06:09:54;;;;;;;7.38;5.00;;;;;;;;;;5053567;28;20036;-75
2023/04/16 06:12:20;;;;;;;6.73;5.03;;;;;;;;;;5053260;28;20021;-74
2023/04/16 06:14:45;;;;;;;7.33;4.97;;;;;;;;;;5053530;28;20261;-75
2023/04/16 06:17:11;;;;;;;7.45;4.50;;;;;;;;;;5053352;28;20270;-75
2023/04/16 06:19:36;;;;;;;7.95;5.30;;;;;;;;;;5053555;28;20040;-73
2023/04/16 06:22:01;;;;;;;10.68;5.97;;;;;;;;;;5053247;28;20068;-76
2023/04/16 06:24:26;;;;;;;8.23;5.20;;;;;;;;;;5053269;28;20025;-76
2023/04/16 06:26:53;;;;;;;9.95;5.38;;;;;;;;;;5053300;28;20056;-75
2023/04/16 06:29:18;;;;;;;6.68;5.28;;;;;;;;;;5053300;28;20051;-75
2023/04/16 06:31:43;;;;;;;7.90;5.55;;;;;;;;;;5053357;28;20021;-75
2023/04/16 06:34:08;;;;;;;8.82;5.57;;;;;;;;;;5053262;28;20056;-75
2023/04/16 06:36:34;;;;;;;10.25;5.80;;;;;;;;;;5053443;28;20025;-76
2023/04/16 06:38:59;;;;;;;8.20;5.80;;;;;;;;;;5053450;28;20452;-75
2023/04/16 06:41:25;;;;;;;9.07;5.65;;;;;;;;;;5052974;28;20786;-75
2023/04/16 06:43:51;;;;;;;9.80;6.05;;;;;;;;;;5053084;28;20036;-75
2023/04/16 06:46:16;;;;;;;7.65;5.75;;;;;;;;;;5053360;28;20029;-74
2023/04/16 06:48:41;;;;;;;7.97;5.37;;;;;;;;;;5053301;28;20059;-75
2023/04/16 06:51:06;;;;;;;9.40;5.95;;;;;;;;;;5053117;28;20262;-75
2023/04/16 06:53:32;;;;;;;12.25;5.90;;;;;;;;;;5052841;28;20045;-75
2023/04/16 06:55:57;;;;;;;9.57;6.07;;;;;;;;;;5053011;28;20484;-77
2023/04/16 06:58:22;;;;;;;9.18;5.60;;;;;;;;;;5051741;28;20428;-77
2023/04/16 07:00:48;;;;;;;8.43;5.78;;;;;;;;;;5052939;28;20021;-75
2023/04/16 07:03:13;;;;;;;10.32;6.03;;;;;;;;;;5053026;28;20033;-76
2023/04/16 07:05:38;;;;;;;10.32;6.50;;;;;;;;;;5052751;28;20021;-76
2023/04/16 07:08:03;;;;;;;8.43;5.90;;;;;;;;;;5052848;28;20032;-76
2023/04/16 07:10:29;;;;;;;11.30;6.68;;;;;;;;;;5052738;28;20254;-75
2023/04/16 07:12:54;;;;;;;9.93;6.60;;;;;;;;;;5052713;28;20028;-75
2023/04/16 07:15:19;;;;;;;9.07;6.28;;;;;;;;;;5051379;28;20032;-76
2023/04/16 07:17:45;;;;;;;9.77;6.17;;;;;;;;;;5052970;28;20040;-76
2023/04/16 07:20:10;;;;;;;9.18;6.25;;;;;;;;;;5053539;28;20273;-75
2023/04/16 07:22:35;;;;;;;9.70;6.40;;;;;;;;;;5052896;28;20025;-75
2023/04/16 07:25:01;;;;;;;10.27;7.03;;;;;;;;;;5051308;28;20029;-76
2023/04/16 07:27:26;;;;;;;11.40;7.13;;;;;;;;;;5052857;28;20017;-76
2023/04/16 07:29:51;;;;;;;9.83;7.20;;;;;;;;;;5052701;28;20025;-76
2023/04/16 07:32:16;;;;;;;9.20;6.53;;;;;;;;;;5052640;28;20289;-76
2023/04/16 07:34:42;;;;;;;11.93;7.00;;;;;;;;;;5052652;28;20273;-75
2023/04/16 07:37:07;;;;;;;9.82;6.57;;;;;;;;;;5052636;28;20024;-75
2023/04/16 07:39:33;;;;;;;10.07;6.53;;;;;;;;;;5052601;28;20040;-76
2023/04/16 07:41:58;;;;;;;10.60;6.97;;;;;;;;;;5051262;28;20506;-75
2023/04/16 07:44:23;;;;;;;12.45;7.47;;;;;;;;;;5052321;28;20021;-75
2023/04/16 07:46:48;;;;;;;9.18;6.95;;;;;;;;;;5052775;28;20040;-77
2023/04/16 07:49:14;;;;;;;9.93;6.77;;;;;;;;;;5054960;28;20512;-76
2023/04/16 07:51:39;;;;;;;10.93;6.97;;;;;;;;;;5056149;28;20261;-76
2023/04/16 07:54:04;;;;;;;10.57;7.13;;;;;;;;;;5056496;28;20044;-74
2023/04/16 07:56:30;;;;;;;9.70;6.43;;;;;;;;;;5056465;28;20465;-76
2023/04/16 07:58:57;;;;;;;11.65;6.75;;;;;;;;;;5056209;28;20107;-76
2023/04/16 08:01:23;;;;;;;10.65;6.70;;;;;;;;;;5055988;28;20017;-76
2023/04/16 08:03:48;;;;;;;11.10;7.22;;;;;;;;;;5056139;28;20074;-76
2023/04/16 08:06:13;;;;;;;10.82;7.15;;;;;;;;;;5055902;28;20035;-76
2023/04/16 08:08:38;;;;;;;11.13;7.35;;;;;;;;;;5054582;28;20496;-76
2023/04/16 08:11:04;;;;;;;9.35;7.30;;;;;;;;;;5055904;28;20112;-75
2023/04/16 08:13:29;;;;;;;12.48;7.72;;;;;;;;;;5055726;28;20025;-75
2023/04/16 08:15:54;;;;;;;11.70;7.67;;;;;;;;;;5054449;28;20128;-75
2023/04/16 08:18:19;;;;;;;10.30;7.20;;;;;;;;;;5055680;28;20301;-75
2023/04/16 08:20:45;;;;;;;10.30;7.33;;;;;;;;;;5055380;28;20332;-76
2023/04/16 08:23:10;;;;;;;10.27;6.85;;;;;;;;;;5055464;28;20265;-75
2023/04/16 08:25:35;;;;;;;12.77;7.32;;;;;;;;;;5055934;28;20033;-76
2023/04/16 08:28:00;;;;;;;11.93;8.10;;;;;;;;;;5055858;28;20033;-76
2023/04/16 08:30:26;;;;;;;9.53;7.00;;;;;;;;;;5055387;28;20269;-76
2023/04/16 08:32:51;;;;;;;11.23;7.85;;;;;;;;;;5054077;28;20262;-76
2023/04/16 08:35:16;;;;;;;11.18;7.60;;;;;;;;;;5055393;28;20048;-75
2023/04/16 08:37:42;;;;;;;12.38;8.50;;;;;;;;;;5054077;28;20112;-74
2023/04/16 08:40:07;;;;;;;11.10;7.57;;;;;;;;;;5055282;28;20526;-75
2023/04/16 08:42:39;;;;;;;12.10;8.40;;;;;;;;;;5055137;28;20649;-75
2023/04/16 08:45:13;;;;;;;12.43;8.43;;;;;;;;;;5055190;28;20018;-76
2023/04/16 08:47:40;;;;;;;10.98;8.18;;;;;;;;;;5055506;28;20032;-75
2023/04/16 08:50:07;;;;;;;12.88;8.63;;;;;;;;;;5053863;28;20029;-75
2023/04/16 08:52:36;;;;;;;14.55;7.93;;;;;;;;;;5054882;28;20071;-75
2023/04/16 08:55:12;;;;;;;12.68;8.55;;;;;;;;;;5053777;28;20124;-75
2023/04/16 08:57:47;;;;;;;12.45;8.85;;;;;;;;;;5054249;28;20024;-76
2023/04/16 09:00:13;;;;;;;13.40;9.10;;;;;;;;;;5054024;28;20024;-76
2023/04/16 09:02:38;;;;;;;12.50;7.95;;;;;;;;;;5054805;28;20040;-75
2023/04/16 09:05:06;;;;;;;10.07;7.50;;;;;;;;;;5055456;28;20024;-76
2023/04/16 09:07:32;;;;;;;13.18;7.68;;;;;;;;;;5054765;28;20078;-76
2023/04/16 09:09:59;;;;;;;9.43;6.32;;;;;;;;;;5054593;28;20116;-76
2023/04/16 09:12:24;;;;;;;9.57;6.60;;;;;;;;;;5054770;28;20024;-76
2023/04/16 09:14:50;;;;;;;9.27;6.90;;;;;;;;;;5053294;28;20029;-76
2023/04/16 09:17:16;;;;;;;11.55;7.32;;;;;;;;;;5053316;28;20016;-76
2023/04/16 09:19:42;;;;;;;9.30;6.32;;;;;;;;;;5054510;28;20028;-75
2023/04/16 09:22:07;;;;;;;9.75;6.65;;;;;;;;;;5053060;28;20028;-75
2023/04/16 09:24:33;;;;;;;9.70;6.22;;;;;;;;;;5054473;28;20028;-75
2023/04/16 09:27:00;;;;;;;9.00;6.50;;;;;;;;;;5053468;28;20045;-75
2023/04/16 09:29:37;;;;;;;7.65;6.00;;;;;;;;;;5055045;28;20024;-75
2023/04/16 09:32:04;;;;;;;8.70;5.60;;;;;;;;;;5054895;28;20453;-75
2023/04/16 09:34:34;;;;;;;8.85;5.55;;;;;;;;;;5053018;28;20117;-75
2023/04/16 09:37:15;;;;;;;10.32;6.60;;;;;;;;;;5054339;28;20025;-75
2023/04/16 09:39:42;;;;;;;10.02;6.30;;;;;;;;;;5052920;28;20061;-75
2023/04/16 09:42:07;;;;;;;10.45;6.18;;;;;;;;;;5054392;28;20032;-76
2023/04/16 09:44:36;;;;;;;9.32;6.38;;;;;;;;;;5052820;28;20021;-75
2023/04/16 09:47:08;;;;;;;9.18;6.35;;;;;;;;;;5054050;28;20075;-75
2023/04/16 09:49:43;;;;;;;9.35;6.32;;;;;;;;;;5052705;28;20029;-74
2023/04/16 09:52:13;;;;;;;8.05;6.22;;;;;;;;;;5053929;28;20496;-75
2023/04/16 09:54:45;;;;;;;8.65;6.00;;;;;;;;;;5054251;28;20041;-76
2023/04/16 09:57:10;;;;;;;10.70;6.25;;;;;;;;;;5054428;28;20044;-76
2023/04/16 09:59:36;;;;;;;8.73;5.40;;;;;;;;;;5054188;28;20052;-76
2023/04/16 10:02:01;;;;;;;8.48;5.50;;;;;;;;;;5054042;28;20449;-76
2023/04/16 10:04:26;;;;;;;9.32;5.50;;;;;;;;;;5052388;28;20165;-76
2023/04/16 10:07:04;;;;;;;9.30;5.17;;;;;;;;;;5053781;28;20040;-75
2023/04/16 10:09:37;;;;;;;7.15;5.40;;;;;;;;;;5054372;28;20725;-75
2023/04/16 10:12:02;;;;;;;8.32;6.03;;;;;;;;;;5052479;28;20029;-76
2023/04/16 10:14:27;;;;;;;6.63;4.85;;;;;;;;;;5053591;28;20029;-76
2023/04/16 10:16:54;;;;;;;7.32;4.55;;;;;;;;;;5053574;28;20028;-76
2023/04/16 10:19:20;;;;;;;6.18;4.35;;;;;;;;;;5053868;28;20052;-76
2023/04/16 10:21:46;;;;;;;6.20;4.70;;;;;;;;;;5053425;28;20062;-76
2023/04/16 10:24:15;;;;;;;8.00;4.55;;;;;;;;;;5053478;28;20033;-76
2023/04/16 10:26:40;;;;;;;9.90;5.95;;;;;;;;;;5053330;28;20032;-77
2023/04/16 10:29:06;;;;;;;6.75;4.85;;;;;;;;;;5053571;28;20028;-75
2023/04/16 10:31:32;;;;;;;6.43;4.68;;;;;;;;;;5051962;28;20443;-75
2023/04/16 10:33:57;;;;;;;7.63;5.68;;;;;;;;;;5053291;28;20472;-75
2023/04/16 10:36:25;;;;;;;6.78;5.25;;;;;;;;;;5052000;28;20033;-75
2023/04/16 10:38:51;;;;;;;8.00;5.57;;;;;;;;;;5053239;28;20023;-75
2023/04/16 10:41:19;;;;;;;5.85;4.22;;;;;;;;;;5053139;28;20028;-75
2023/04/16 10:43:46;;;;;;;5.30;3.67;;;;;;;;;;5051773;28;20021;-75
2023/04/16 10:46:32;;;;;;;4.50;3.42;;;;;;;;;;5051777;28;20067;-75
2023/04/16 10:49:22;;;;;;;4.88;3.70;;;;;;;;;;5051955;28;20025;-75
2023/04/16 10:51:55;;;;;;;7.72;4.05;;;;;;;;;;5053112;28;20037;-75
2023/04/16 10:54:24;;;;;;;6.63;4.35;;;;;;;;;;5051764;28;20025;-76
2023/04/16 10:56:50;;;;;;;5.30;4.05;;;;;;;;;;5051702;28;20025;-75
2023/04/16 10:59:20;;;;;;;4.95;3.83;;;;;;;;;;5051676;28;20466;-75
2023/04/16 11:01:48;;;;;;;5.72;4.40;;;;;;;;;;5051607;28;20060;-76
2023/04/16 11:04:20;;;;;;;5.63;3.67;;;;;;;;;;5052842;28;20021;-75
2023/04/16 11:07:09;;;;;;;8.38;5.15;;;;;;;;;;5053953;28;20349;-76
2023/04/16 11:09:45;;;;;;;8.32;5.13;;;;;;;;;;5052770;28;20029;-76
2023/04/16 11:12:12;;;;;;;7.07;4.82;;;;;;;;;;5053094;28;20017;-76
2023/04/16 11:14:40;;;;;;;7.35;5.60;;;;;;;;;;5053136;28;20476;-75
2023/04/16 11:17:05;;;;;;;7.60;5.68;;;;;;;;;;5053215;28;20037;-76
2023/04/16 11:19:30;;;;;;;8.50;6.00;;;;;;;;;;5056122;28;20040;-76
2023/04/16 11:21:56;;;;;;;8.25;5.95;;;;;;;;;;5052754;28;20029;-76
2023/04/16 11:24:21;;;;;;;9.85;6.10;;;;;;;;;;5055188;28;20023;-76
2023/04/16 11:26:50;;;;;;;8.23;5.93;;;;;;;;;;5057203;28;20056;-77
2023/04/16 11:29:15;;;;;;;7.70;5.63;;;;;;;;;;5055320;28;20265;-75
2023/04/16 11:31:41;;;;;;;9.50;5.75;;;;;;;;;;5056550;28;20023;-75
2023/04/16 11:34:07;;;;;;;7.43;5.05;;;;;;;;;;5055129;28;20083;-75
2023/04/16 11:36:50;;;;;;;7.53;5.30;;;;;;;;;;5056484;28;20079;-75
2023/04/16 11:39:15;;;;;;;7.45;5.00;;;;;;;;;;5056826;28;20079;-74
2023/04/16 11:41:46;;;;;;;7.45;5.10;;;;;;;;;;5055061;28;20053;-74
2023/04/16 11:44:22;;;;;;;5.78;4.50;;;;;;;;;;5056553;28;20021;-75
2023/04/16 11:46:48;;;;;;;8.25;4.50;;;;;;;;;;5056215;28;20051;-75
2023/04/16 11:49:16;;;;;;;7.75;4.68;;;;;;;;;;5057750;28;20112;-77
2023/04/16 11:51:43;;;;;;;6.43;4.45;;;;;;;;;;5056295;28;20481;-75
2023/04/16 11:54:09;;;;;;;5.35;4.38;;;;;;;;;;5056416;28;20033;-75
2023/04/16 11:56:36;;;;;;;6.22;4.68;;;;;;;;;;5056482;28;20024;-75
2023/04/16 11:59:15;;;;;;;6.55;4.18;;;;;;;;;;5055004;28;20025;-75
2023/04/16 12:01:44;;;;;;;6.82;4.70;;;;;;;;;;5056022;28;20488;-75
2023/04/16 12:04:10;;;;;;;6.70;3.92;;;;;;;;;;5055786;28;20024;-76
2023/04/16 12:06:35;;;;;;;6.47;4.50;;;;;;;;;;5056105;28;20468;-74
2023/04/16 12:09:24;;;;;;;6.35;4.70;;;;;;;;;;5054854;28;20025;-75
2023/04/16 12:11:49;;;;;;;6.18;3.72;;;;;;;;;;5055734;28;20029;-75
2023/04/16 12:14:14;;;;;;;6.20;3.70;;;;;;;;;;5054492;28;20488;-75
2023/04/16 12:16:40;;;;;;;4.90;3.60;;;;;;;;;;5055743;28;20052;-75
2023/04/16 12:19:05;;;;;;;8.33;3.73;;;;;;;;;;5054284;28;20036;-75
2023/04/16 12:21:38;;;;;;;6.05;3.53;;;;;;;;;;5055569;28;20282;-75
2023/04/16 12:24:05;;;;;;;5.72;3.92;;;;;;;;;;5054343;28;20032;-75
2023/04/16 12:26:47;;;;;;;6.45;3.65;;;;;;;;;;5055561;28;20100;-76
2023/04/16 12:29:17;;;;;;;5.32;3.75;;;;;;;;;;5055985;28;20431;-75
2023/04/16 12:31:43;;;;;;;3.80;3.03;;;;;;;;;;5055687;28;20534;-75
2023/04/16 12:34:09;;;;;;;6.65;3.08;;;;;;;;;;5055159;28;20025;-75
2023/04/16 12:36:34;;;;;;;5.47;3.45;;;;;;;;;;5055278;28;20075;-75
2023/04/16 12:39:00;;;;;;;5.45;3.60;;;;;;;;;;5055550;28;20048;-74
2023/04/16 12:41:25;;;;;;;5.20;3.50;;;;;;;;;;5053872;28;20029;-75
2023/04/16 12:43:50;;;;;;;4.87;3.40;;;;;;;;;;5053995;28;20063;-75
2023/04/16 12:46:16;;;;;;;5.85;3.35;;;;;;;;;;5055278;28;20273;-75
2023/04/16 12:48:42;;;;;;;4.43;3.20;;;;;;;;;;5053689;28;20029;-75
2023/04/16 12:51:07;;;;;;;4.18;2.90;;;;;;;;;;5054243;28;20258;-77
2023/04/16 12:53:33;;;;;;;5.07;2.88;;;;;;;;;;5055836;28;20036;-75
2023/04/16 12:55:58;;;;;;;5.68;3.25;;;;;;;;;;5054848;28;20534;-76
2023/04/16 12:58:24;;;;;;;5.00;3.38;;;;;;;;;;5055167;28;20025;-76
2023/04/16 13:00:49;;;;;;;3.70;2.90;;;;;;;;;;5053530;28;20399;-76
2023/04/16 13:03:15;;;;;;;4.97;3.08;;;;;;;;;;5055100;28;20334;-76
2023/04/16 13:05:40;;;;;;;3.63;2.85;;;;;;;;;;5053502;28;20017;-76
2023/04/16 13:08:05;;;;;;;3.70;2.73;;;;;;;;;;5054702;28;20025;-76
2023/04/16 13:10:30;;;;;;;3.55;2.78;;;;;;;;;;5053303;28;20254;-76
2023/04/16 13:12:56;;;;;;;4.10;2.78;;;;;;;;;;5053038;28;20063;-76
2023/04/16 13:15:21;;;;;;;4.60;2.85;;;;;;;;;;5054520;28;20020;-76
2023/04/16 13:17:46;;;;;;;3.50;2.87;;;;;;;;;;5055107;28;20036;-76
2023/04/16 13:20:11;;;;;;;4.80;2.90;;;;;;;;;;5054495;28;20353;-76
2023/04/16 13:22:37;;;;;;;4.93;2.92;;;;;;;;;;5052974;28;20353;-77
2023/04/16 13:25:03;;;;;;;4.30;2.95;;;;;;;;;;5054997;28;20048;-77
2023/04/16 13:27:30;;;;;;;3.72;2.72;;;;;;;;;;5055699;28;20067;-78
2023/04/16 13:29:56;;;;;;;3.38;2.58;;;;;;;;;;5054850;28;20510;-77
2023/04/16 13:32:21;;;;;;;3.13;2.45;;;;;;;;;;5055013;28;20021;-76
2023/04/16 13:34:46;;;;;;;4.10;2.65;;;;;;;;;;5054695;28;20425;-77
2023/04/16 13:37:14;;;;;;;4.22;3.08;;;;;;;;;;5054573;28;20032;-76
2023/04/16 13:39:39;;;;;;;6.85;3.28;;;;;;;;;;5054082;28;20029;-76
2023/04/16 13:42:04;;;;;;;4.00;2.85;;;;;;;;;;5054312;28;20029;-75
2023/04/16 13:44:30;;;;;;;4.10;2.95;;;;;;;;;;5052720;28;20086;-77
2023/04/16 13:46:55;;;;;;;3.63;2.93;;;;;;;;;;5053863;28;20036;-75
2023/04/16 13:49:21;;;;;;;4.70;3.45;;;;;;;;;;5055098;28;20254;-76
2023/04/16 13:51:46;;;;;;;5.10;3.63;;;;;;;;;;5054745;28;20366;-76
2023/04/16 13:54:12;;;;;;;6.22;3.58;;;;;;;;;;5054156;28;20074;-76
2023/04/16 13:56:37;;;;;;;5.32;4.15;;;;;;;;;;5054048;28;20391;-75
2023/04/16 13:59:02;;;;;;;5.20;3.97;;;;;;;;;;5054449;28;20032;-75
2023/04/16 14:01:28;;;;;;;4.47;3.10;;;;;;;;;;5054027;28;20075;-75
2023/04/16 14:03:53;;;;;;;6.17;3.37;;;;;;;;;;5054156;28;20024;-76
2023/04/16 14:06:18;;;;;;;4.72;3.25;;;;;;;;;;5052837;28;20262;-75
2023/04/16 14:08:44;;;;;;;5.40;3.85;;;;;;;;;;5053841;28;20038;-76
2023/04/16 14:11:10;;;;;;;4.18;3.10;;;;;;;;;;5052411;28;20017;-75
2023/04/16 14:13:35;;;;;;;5.45;3.78;;;;;;;;;;5054025;28;20033;-74
2023/04/16 14:16:01;;;;;;;4.78;3.35;;;;;;;;;;5053710;28;20024;-74
2023/04/16 14:18:29;;;;;;;5.35;3.28;;;;;;;;;;5054448;28;20017;-78
2023/04/16 14:20:54;;;;;;;5.00;2.90;;;;;;;;;;5054702;28;20520;-76
2023/04/16 14:23:20;;;;;;;4.55;3.30;;;;;;;;;;5053930;28;20032;-75
2023/04/16 14:25:45;;;;;;;5.35;3.10;;;;;;;;;;5053715;28;20096;-76
2023/04/16 14:28:10;;;;;;;3.77;2.70;;;;;;;;;;5053968;28;20043;-75
2023/04/16 14:30:36;;;;;;;3.45;2.13;;;;;;;;;;5053437;28;20293;-75
2023/04/16 14:33:05;;;;;;;4.23;3.00;;;;;;;;;;5053228;28;20429;-75
2023/04/16 14:35:32;;;;;;;3.42;2.58;;;;;;;;;;5053080;28;20725;-75